Dunholme, United Kingdom
Current Conditions -  °F | °C
As of 3:50 PM on Saturday 25 Oct 2014 (Local Time) from EGXP Reporting Station
Broken Clouds Broken Clouds  
Wind Chill: 57°   Ceiling: 3300
Heat Index: 57°   Visibility: 6mi
Dew Point: 50°   Wind: 17mph
Humidity: 77%   Direction: 230°SW
Pressure: 29.94"   Gusts: NA
Location:  53.3°N, 0.47°W
Report Text: EGXP 251450Z AUTO 23015KT 9999 // FEW026/// BKN033/// 14/10 Q1014
Loading
Personal Weather Stations






























Interactive Weather Map
Tropical Storm Tracking
New forecast layout! Learn more

10-Day Weather Forecast

Advertisements
Track Severe Weather on mobile